sensor_id;sensor_type;location;lat;lon;timestamp;temperature;humidity
24468;DHT22;12634;50.852;5.676;2023-06-04T00:02:17;10.80;99.90
24468;DHT22;12634;50.852;5.676;2023-06-04T00:04:45;10.70;99.90
24468;DHT22;12634;50.852;5.676;2023-06-04T00:07:12;10.60;99.90
24468;DHT22;12634;50.852;5.676;2023-06-04T00:09:39;10.60;99.90
24468;DHT22;12634;50.852;5.676;2023-06-04T00:12:07;10.70;99.90
24468;DHT22;12634;50.852;5.676;2023-06-04T00:14:34;10.70;99.90
24468;DHT22;12634;50.852;5.676;2023-06-04T00:17:03;10.70;99.90
24468;DHT22;12634;50.852;5.676;2023-06-04T00:19:30;10.60;99.90
24468;DHT22;12634;50.852;5.676;2023-06-04T00:21:59;10.50;99.90
24468;DHT22;12634;50.852;5.676;2023-06-04T00:24:26;10.40;99.90
24468;DHT22;12634;50.852;5.676;2023-06-04T00:26:53;10.50;99.90
24468;DHT22;12634;50.852;5.676;2023-06-04T00:29:20;10.70;99.90
24468;DHT22;12634;50.852;5.676;2023-06-04T00:31:48;10.70;99.90
24468;DHT22;12634;50.852;5.676;2023-06-04T00:34:17;10.80;99.90
24468;DHT22;12634;50.852;5.676;2023-06-04T00:36:44;10.80;99.90
24468;DHT22;12634;50.852;5.676;2023-06-04T00:39:11;11.00;99.90
24468;DHT22;12634;50.852;5.676;2023-06-04T00:41:39;10.90;99.90
24468;DHT22;12634;50.852;5.676;2023-06-04T00:44:06;11.00;99.90
24468;DHT22;12634;50.852;5.676;2023-06-04T00:46:34;10.90;99.90
24468;DHT22;12634;50.852;5.676;2023-06-04T00:49:04;10.80;99.90
24468;DHT22;12634;50.852;5.676;2023-06-04T00:51:33;10.80;99.90
24468;DHT22;12634;50.852;5.676;2023-06-04T00:54:02;10.80;99.90
24468;DHT22;12634;50.852;5.676;2023-06-04T00:56:34;10.80;99.90
24468;DHT22;12634;50.852;5.676;2023-06-04T00:59:03;10.80;99.90
24468;DHT22;12634;50.852;5.676;2023-06-04T01:01:37;10.80;99.90
24468;DHT22;12634;50.852;5.676;2023-06-04T01:04:14;10.60;99.90
24468;DHT22;12634;50.852;5.676;2023-06-04T01:06:47;10.40;99.90
24468;DHT22;12634;50.852;5.676;2023-06-04T01:09:15;10.20;99.90
24468;DHT22;12634;50.852;5.676;2023-06-04T01:11:42;10.10;99.90
24468;DHT22;12634;50.852;5.676;2023-06-04T01:14:09;10.10;99.90
24468;DHT22;12634;50.852;5.676;2023-06-04T01:16:42;10.00;99.90
24468;DHT22;12634;50.852;5.676;2023-06-04T01:19:24;10.00;99.90
24468;DHT22;12634;50.852;5.676;2023-06-04T01:22:04;9.90;99.90
24468;DHT22;12634;50.852;5.676;2023-06-04T01:24:37;9.90;99.90
24468;DHT22;12634;50.852;5.676;2023-06-04T01:27:08;10.00;99.90
24468;DHT22;12634;50.852;5.676;2023-06-04T01:29:35;10.10;99.90
24468;DHT22;12634;50.852;5.676;2023-06-04T01:32:04;9.90;99.90
24468;DHT22;12634;50.852;5.676;2023-06-04T01:34:42;9.90;99.90
24468;DHT22;12634;50.852;5.676;2023-06-04T01:37:11;9.70;99.90
24468;DHT22;12634;50.852;5.676;2023-06-04T01:39:39;9.50;99.90
24468;DHT22;12634;50.852;5.676;2023-06-04T01:42:07;9.30;99.90
24468;DHT22;12634;50.852;5.676;2023-06-04T01:44:34;9.30;99.90
24468;DHT22;12634;50.852;5.676;2023-06-04T01:47:01;9.50;99.90
24468;DHT22;12634;50.852;5.676;2023-06-04T01:49:28;9.70;99.90
24468;DHT22;12634;50.852;5.676;2023-06-04T01:51:55;9.80;99.90
24468;DHT22;12634;50.852;5.676;2023-06-04T01:54:24;9.70;99.90
24468;DHT22;12634;50.852;5.676;2023-06-04T01:56:51;9.50;99.90
24468;DHT22;12634;50.852;5.676;2023-06-04T01:59:18;9.30;99.90
24468;DHT22;12634;50.852;5.676;2023-06-04T02:01:46;9.20;99.90
24468;DHT22;12634;50.852;5.676;2023-06-04T02:04:13;9.20;99.90
24468;DHT22;12634;50.852;5.676;2023-06-04T02:06:40;9.30;99.90
24468;DHT22;12634;50.852;5.676;2023-06-04T02:09:07;9.00;99.90
24468;DHT22;12634;50.852;5.676;2023-06-04T02:11:35;9.30;99.90
24468;DHT22;12634;50.852;5.676;2023-06-04T02:14:02;9.30;99.90
24468;DHT22;12634;50.852;5.676;2023-06-04T02:16:30;9.40;99.90
24468;DHT22;12634;50.852;5.676;2023-06-04T02:18:58;9.20;99.90
24468;DHT22;12634;50.852;5.676;2023-06-04T02:21:26;9.00;99.90
24468;DHT22;12634;50.852;5.676;2023-06-04T02:23:53;9.10;99.90
24468;DHT22;12634;50.852;5.676;2023-06-04T02:26:20;9.10;99.90
24468;DHT22;12634;50.852;5.676;2023-06-04T02:28:50;9.00;99.90
24468;DHT22;12634;50.852;5.676;2023-06-04T02:31:17;9.00;99.90
24468;DHT22;12634;50.852;5.676;2023-06-04T02:33:44;9.10;99.90
24468;DHT22;12634;50.852;5.676;2023-06-04T02:36:12;9.10;99.90
24468;DHT22;12634;50.852;5.676;2023-06-04T02:38:39;8.90;99.90
24468;DHT22;12634;50.852;5.676;2023-06-04T02:41:06;8.70;99.90
24468;DHT22;12634;50.852;5.676;2023-06-04T02:43:33;8.90;99.90
24468;DHT22;12634;50.852;5.676;2023-06-04T02:46:02;8.90;99.90
24468;DHT22;12634;50.852;5.676;2023-06-04T02:48:29;9.00;99.90
24468;DHT22;12634;50.852;5.676;2023-06-04T02:50:56;9.10;99.90
24468;DHT22;12634;50.852;5.676;2023-06-04T02:53:23;9.10;99.90
24468;DHT22;12634;50.852;5.676;2023-06-04T02:55:50;9.10;99.90
24468;DHT22;12634;50.852;5.676;2023-06-04T02:58:17;9.00;99.90
24468;DHT22;12634;50.852;5.676;2023-06-04T03:00:44;8.70;99.90
24468;DHT22;12634;50.852;5.676;2023-06-04T03:03:13;8.70;99.90
24468;DHT22;12634;50.852;5.676;2023-06-04T03:05:40;8.70;99.90
24468;DHT22;12634;50.852;5.676;2023-06-04T03:08:08;8.80;99.90
24468;DHT22;12634;50.852;5.676;2023-06-04T03:10:36;8.80;99.90
24468;DHT22;12634;50.852;5.676;2023-06-04T03:13:03;8.90;99.90
24468;DHT22;12634;50.852;5.676;2023-06-04T03:15:30;8.70;99.90
24468;DHT22;12634;50.852;5.676;2023-06-04T03:17:57;8.50;99.90
24468;DHT22;12634;50.852;5.676;2023-06-04T03:20:26;8.50;99.90
24468;DHT22;12634;50.852;5.676;2023-06-04T03:22:53;8.50;99.90
24468;DHT22;12634;50.852;5.676;2023-06-04T03:25:20;8.50;99.90
24468;DHT22;12634;50.852;5.676;2023-06-04T03:27:48;8.50;99.90
24468;DHT22;12634;50.852;5.676;2023-06-04T03:30:15;8.60;99.90
24468;DHT22;12634;50.852;5.676;2023-06-04T03:32:42;8.60;99.90
24468;DHT22;12634;50.852;5.676;2023-06-04T03:35:11;8.60;99.90
24468;DHT22;12634;50.852;5.676;2023-06-04T03:37:39;8.60;99.90
24468;DHT22;12634;50.852;5.676;2023-06-04T03:40:07;8.50;99.90
24468;DHT22;12634;50.852;5.676;2023-06-04T03:42:35;8.50;99.90
24468;DHT22;12634;50.852;5.676;2023-06-04T03:45:02;8.60;99.90
24468;DHT22;12634;50.852;5.676;2023-06-04T03:47:29;8.60;99.90
24468;DHT22;12634;50.852;5.676;2023-06-04T03:49:56;8.50;99.90
24468;DHT22;12634;50.852;5.676;2023-06-04T03:52:23;8.50;99.90
24468;DHT22;12634;50.852;5.676;2023-06-04T03:54:52;8.50;99.90
24468;DHT22;12634;50.852;5.676;2023-06-04T03:57:19;8.60;99.90
24468;DHT22;12634;50.852;5.676;2023-06-04T03:59:46;8.60;99.90
24468;DHT22;12634;50.852;5.676;2023-06-04T04:02:13;8.70;99.90
24468;DHT22;12634;50.852;5.676;2023-06-04T04:04:41;8.80;99.90
24468;DHT22;12634;50.852;5.676;2023-06-04T04:07:08;8.90;99.90
24468;DHT22;12634;50.852;5.676;2023-06-04T04:09:36;9.00;99.90
24468;DHT22;12634;50.852;5.676;2023-06-04T04:12:05;9.20;99.90
24468;DHT22;12634;50.852;5.676;2023-06-04T04:14:32;9.30;99.90
24468;DHT22;12634;50.852;5.676;2023-06-04T04:16:59;9.50;99.90
24468;DHT22;12634;50.852;5.676;2023-06-04T04:19:27;9.50;99.90
24468;DHT22;12634;50.852;5.676;2023-06-04T04:21:54;9.60;99.90
24468;DHT22;12634;50.852;5.676;2023-06-04T04:24:24;9.70;99.90
24468;DHT22;12634;50.852;5.676;2023-06-04T04:26:52;9.70;99.90
24468;DHT22;12634;50.852;5.676;2023-06-04T04:29:21;9.80;99.90
24468;DHT22;12634;50.852;5.676;2023-06-04T04:31:50;9.90;99.90
24468;DHT22;12634;50.852;5.676;2023-06-04T04:34:18;10.10;99.90
24468;DHT22;12634;50.852;5.676;2023-06-04T04:36:47;10.10;99.90
24468;DHT22;12634;50.852;5.676;2023-06-04T04:39:18;10.20;99.90
24468;DHT22;12634;50.852;5.676;2023-06-04T04:41:46;10.40;99.90
24468;DHT22;12634;50.852;5.676;2023-06-04T04:44:13;10.50;99.90
24468;DHT22;12634;50.852;5.676;2023-06-04T04:46:41;10.50;99.90
24468;DHT22;12634;50.852;5.676;2023-06-04T04:49:09;10.70;99.90
24468;DHT22;12634;50.852;5.676;2023-06-04T04:51:36;10.80;99.90
24468;DHT22;12634;50.852;5.676;2023-06-04T04:54:03;10.80;99.90
24468;DHT22;12634;50.852;5.676;2023-06-04T04:56:33;10.70;99.90
24468;DHT22;12634;50.852;5.676;2023-06-04T04:59:01;10.70;99.90
24468;DHT22;12634;50.852;5.676;2023-06-04T05:01:28;10.80;99.90
24468;DHT22;12634;50.852;5.676;2023-06-04T05:03:57;11.40;99.90
24468;DHT22;12634;50.852;5.676;2023-06-04T05:06:24;12.10;99.90
24468;DHT22;12634;50.852;5.676;2023-06-04T05:08:51;12.90;99.90
24468;DHT22;12634;50.852;5.676;2023-06-04T05:11:18;13.30;99.90
24468;DHT22;12634;50.852;5.676;2023-06-04T05:13:47;13.10;99.90
24468;DHT22;12634;50.852;5.676;2023-06-04T05:16:14;12.80;99.90
24468;DHT22;12634;50.852;5.676;2023-06-04T05:18:41;12.70;99.90
24468;DHT22;12634;50.852;5.676;2023-06-04T05:21:11;13.00;99.90
24468;DHT22;12634;50.852;5.676;2023-06-04T05:23:39;13.30;99.90
24468;DHT22;12634;50.852;5.676;2023-06-04T05:26:06;13.50;99.90
24468;DHT22;12634;50.852;5.676;2023-06-04T05:28:33;13.00;99.90
24468;DHT22;12634;50.852;5.676;2023-06-04T05:31:00;12.80;99.90
24468;DHT22;12634;50.852;5.676;2023-06-04T05:33:30;12.70;99.90
24468;DHT22;12634;50.852;5.676;2023-06-04T05:35:57;13.30;99.90
24468;DHT22;12634;50.852;5.676;2023-06-04T05:38:26;14.00;99.90
24468;DHT22;12634;50.852;5.676;2023-06-04T05:40:54;14.80;99.90
24468;DHT22;12634;50.852;5.676;2023-06-04T05:43:21;15.00;99.90
24468;DHT22;12634;50.852;5.676;2023-06-04T05:45:49;14.80;99.90
24468;DHT22;12634;50.852;5.676;2023-06-04T05:48:17;14.60;99.90
24468;DHT22;12634;50.852;5.676;2023-06-04T05:50:44;14.10;99.90
24468;DHT22;12634;50.852;5.676;2023-06-04T05:53:13;13.70;99.90
24468;DHT22;12634;50.852;5.676;2023-06-04T05:55:41;13.60;99.90
24468;DHT22;12634;50.852;5.676;2023-06-04T05:58:08;13.50;99.90
24468;DHT22;12634;50.852;5.676;2023-06-04T06:00:35;13.50;99.90
24468;DHT22;12634;50.852;5.676;2023-06-04T06:03:03;13.70;99.90
24468;DHT22;12634;50.852;5.676;2023-06-04T06:05:31;13.90;99.90
24468;DHT22;12634;50.852;5.676;2023-06-04T06:07:58;14.40;99.90
24468;DHT22;12634;50.852;5.676;2023-06-04T06:10:25;15.20;99.90
24468;DHT22;12634;50.852;5.676;2023-06-04T06:12:53;16.00;99.90
24468;DHT22;12634;50.852;5.676;2023-06-04T06:15:21;16.60;99.90
24468;DHT22;12634;50.852;5.676;2023-06-04T06:17:49;17.50;99.90
24468;DHT22;12634;50.852;5.676;2023-06-04T06:20:17;17.80;99.90
24468;DHT22;12634;50.852;5.676;2023-06-04T06:22:45;17.90;99.90
24468;DHT22;12634;50.852;5.676;2023-06-04T06:25:12;18.10;99.90
24468;DHT22;12634;50.852;5.676;2023-06-04T06:27:41;18.40;99.90
24468;DHT22;12634;50.852;5.676;2023-06-04T06:30:10;18.60;99.90
24468;DHT22;12634;50.852;5.676;2023-06-04T06:32:38;18.60;99.90
24468;DHT22;12634;50.852;5.676;2023-06-04T06:35:06;18.60;99.90
24468;DHT22;12634;50.852;5.676;2023-06-04T06:37:33;18.60;99.90
24468;DHT22;12634;50.852;5.676;2023-06-04T06:40:00;19.20;99.90
24468;DHT22;12634;50.852;5.676;2023-06-04T06:42:32;19.50;99.90
24468;DHT22;12634;50.852;5.676;2023-06-04T06:44:59;20.20;99.90
24468;DHT22;12634;50.852;5.676;2023-06-04T06:47:28;20.60;99.90
24468;DHT22;12634;50.852;5.676;2023-06-04T06:49:55;20.70;99.90
24468;DHT22;12634;50.852;5.676;2023-06-04T06:52:22;21.10;99.90
24468;DHT22;12634;50.852;5.676;2023-06-04T06:54:49;21.30;99.90
24468;DHT22;12634;50.852;5.676;2023-06-04T06:57:16;21.60;99.90
24468;DHT22;12634;50.852;5.676;2023-06-04T06:59:44;22.00;99.90
24468;DHT22;12634;50.852;5.676;2023-06-04T07:02:11;22.00;99.30
24468;DHT22;12634;50.852;5.676;2023-06-04T07:04:39;21.50;99.90
24468;DHT22;12634;50.852;5.676;2023-06-04T07:07:06;21.30;99.90
24468;DHT22;12634;50.852;5.676;2023-06-04T07:09:34;21.20;99.90
24468;DHT22;12634;50.852;5.676;2023-06-04T07:12:01;21.90;99.90
24468;DHT22;12634;50.852;5.676;2023-06-04T07:14:28;22.30;99.90
24468;DHT22;12634;50.852;5.676;2023-06-04T07:16:55;22.30;98.90
24468;DHT22;12634;50.852;5.676;2023-06-04T07:19:22;22.60;99.80
24468;DHT22;12634;50.852;5.676;2023-06-04T07:21:53;22.40;99.90
24468;DHT22;12634;50.852;5.676;2023-06-04T07:24:21;22.40;97.50
24468;DHT22;12634;50.852;5.676;2023-06-04T07:26:48;22.10;99.90
24468;DHT22;12634;50.852;5.676;2023-06-04T07:29:15;21.90;96.90
24468;DHT22;12634;50.852;5.676;2023-06-04T07:31:42;21.50;99.30
24468;DHT22;12634;50.852;5.676;2023-06-04T07:34:10;21.00;99.30
24468;DHT22;12634;50.852;5.676;2023-06-04T07:36:37;21.20;99.90
24468;DHT22;12634;50.852;5.676;2023-06-04T07:39:07;21.60;98.30
24468;DHT22;12634;50.852;5.676;2023-06-04T07:41:34;21.10;99.90
24468;DHT22;12634;50.852;5.676;2023-06-04T07:44:01;21.40;99.90
24468;DHT22;12634;50.852;5.676;2023-06-04T07:46:28;22.10;99.90
24468;DHT22;12634;50.852;5.676;2023-06-04T07:48:55;22.30;99.50
24468;DHT22;12634;50.852;5.676;2023-06-04T07:51:22;22.20;98.00
24468;DHT22;12634;50.852;5.676;2023-06-04T07:53:51;22.40;99.20
24468;DHT22;12634;50.852;5.676;2023-06-04T07:56:19;22.80;99.70
24468;DHT22;12634;50.852;5.676;2023-06-04T07:58:47;22.80;99.10
24468;DHT22;12634;50.852;5.676;2023-06-04T08:01:14;23.30;99.90
24468;DHT22;12634;50.852;5.676;2023-06-04T08:03:41;23.90;99.70
24468;DHT22;12634;50.852;5.676;2023-06-04T08:06:09;23.70;97.80
24468;DHT22;12634;50.852;5.676;2023-06-04T08:08:36;23.50;94.20
24468;DHT22;12634;50.852;5.676;2023-06-04T08:11:03;22.70;95.40
24468;DHT22;12634;50.852;5.676;2023-06-04T08:13:32;22.70;94.80
24468;DHT22;12634;50.852;5.676;2023-06-04T08:15:59;23.20;99.50
24468;DHT22;12634;50.852;5.676;2023-06-04T08:18:26;23.80;94.60
24468;DHT22;12634;50.852;5.676;2023-06-04T08:20:54;23.70;93.90
24468;DHT22;12634;50.852;5.676;2023-06-04T08:23:21;23.70;96.20
24468;DHT22;12634;50.852;5.676;2023-06-04T08:25:48;24.10;95.30
24468;DHT22;12634;50.852;5.676;2023-06-04T08:28:16;24.20;92.60
24468;DHT22;12634;50.852;5.676;2023-06-04T08:30:46;24.20;94.50
24468;DHT22;12634;50.852;5.676;2023-06-04T08:33:13;24.00;91.50
24468;DHT22;12634;50.852;5.676;2023-06-04T08:35:40;23.90;97.10
24468;DHT22;12634;50.852;5.676;2023-06-04T08:38:07;23.90;93.50
24468;DHT22;12634;50.852;5.676;2023-06-04T08:40:34;23.90;97.00
24468;DHT22;12634;50.852;5.676;2023-06-04T08:43:02;24.70;97.70
24468;DHT22;12634;50.852;5.676;2023-06-04T08:45:33;25.40;92.70
24468;DHT22;12634;50.852;5.676;2023-06-04T08:48:09;25.10;98.10
24468;DHT22;12634;50.852;5.676;2023-06-04T08:50:39;25.90;95.00
24468;DHT22;12634;50.852;5.676;2023-06-04T08:53:09;26.20;94.00
24468;DHT22;12634;50.852;5.676;2023-06-04T08:55:38;25.70;92.10
24468;DHT22;12634;50.852;5.676;2023-06-04T08:58:05;25.60;92.10
24468;DHT22;12634;50.852;5.676;2023-06-04T09:00:33;26.00;96.50
24468;DHT22;12634;50.852;5.676;2023-06-04T09:03:02;26.10;82.50
24468;DHT22;12634;50.852;5.676;2023-06-04T09:05:31;25.10;90.00
24468;DHT22;12634;50.852;5.676;2023-06-04T09:08:01;25.70;91.80
24468;DHT22;12634;50.852;5.676;2023-06-04T09:10:30;26.10;91.40
24468;DHT22;12634;50.852;5.676;2023-06-04T09:13:01;26.30;89.50
24468;DHT22;12634;50.852;5.676;2023-06-04T09:15:28;26.10;84.10
24468;DHT22;12634;50.852;5.676;2023-06-04T09:17:55;25.30;91.10
24468;DHT22;12634;50.852;5.676;2023-06-04T09:20:23;25.50;90.40
24468;DHT22;12634;50.852;5.676;2023-06-04T09:22:52;25.30;90.00
24468;DHT22;12634;50.852;5.676;2023-06-04T09:25:21;25.80;90.20
24468;DHT22;12634;50.852;5.676;2023-06-04T09:27:48;25.60;89.20
24468;DHT22;12634;50.852;5.676;2023-06-04T09:30:15;25.50;86.40
24468;DHT22;12634;50.852;5.676;2023-06-04T09:32:43;25.50;81.90
24468;DHT22;12634;50.852;5.676;2023-06-04T09:35:11;25.30;87.40
24468;DHT22;12634;50.852;5.676;2023-06-04T09:37:38;25.80;91.80
24468;DHT22;12634;50.852;5.676;2023-06-04T09:40:08;25.90;91.10
24468;DHT22;12634;50.852;5.676;2023-06-04T09:42:42;25.60;90.10
24468;DHT22;12634;50.852;5.676;2023-06-04T09:45:10;25.50;83.00
24468;DHT22;12634;50.852;5.676;2023-06-04T09:47:40;25.30;91.80
24468;DHT22;12634;50.852;5.676;2023-06-04T09:50:08;25.70;85.90
24468;DHT22;12634;50.852;5.676;2023-06-04T09:52:36;25.00;91.10
24468;DHT22;12634;50.852;5.676;2023-06-04T09:55:03;25.10;85.00
24468;DHT22;12634;50.852;5.676;2023-06-04T09:57:32;25.10;83.20
24468;DHT22;12634;50.852;5.676;2023-06-04T10:00:02;25.20;82.70
24468;DHT22;12634;50.852;5.676;2023-06-04T10:02:33;25.80;90.90
24468;DHT22;12634;50.852;5.676;2023-06-04T10:05:01;25.90;90.40
24468;DHT22;12634;50.852;5.676;2023-06-04T10:07:30;26.00;84.80
24468;DHT22;12634;50.852;5.676;2023-06-04T10:09:57;25.90;83.80
24468;DHT22;12634;50.852;5.676;2023-06-04T10:12:27;26.30;90.20
24468;DHT22;12634;50.852;5.676;2023-06-04T10:15:02;26.90;86.60
24468;DHT22;12634;50.852;5.676;2023-06-04T10:17:29;26.30;79.30
24468;DHT22;12634;50.852;5.676;2023-06-04T10:19:58;26.20;82.50
24468;DHT22;12634;50.852;5.676;2023-06-04T10:22:28;26.40;89.90
24468;DHT22;12634;50.852;5.676;2023-06-04T10:24:56;26.90;80.80
24468;DHT22;12634;50.852;5.676;2023-06-04T10:27:24;27.20;92.50
24468;DHT22;12634;50.852;5.676;2023-06-04T10:29:51;26.30;86.70
24468;DHT22;12634;50.852;5.676;2023-06-04T10:32:21;26.60;86.40
24468;DHT22;12634;50.852;5.676;2023-06-04T10:34:48;26.40;82.50
24468;DHT22;12634;50.852;5.676;2023-06-04T10:37:19;26.50;80.90
24468;DHT22;12634;50.852;5.676;2023-06-04T10:39:51;26.20;74.60
24468;DHT22;12634;50.852;5.676;2023-06-04T10:42:19;26.10;89.20
24468;DHT22;12634;50.852;5.676;2023-06-04T10:44:48;26.10;75.80
24468;DHT22;12634;50.852;5.676;2023-06-04T10:47:20;26.00;84.20
24468;DHT22;12634;50.852;5.676;2023-06-04T10:49:49;25.80;81.20
24468;DHT22;12634;50.852;5.676;2023-06-04T10:52:17;26.00;81.80
24468;DHT22;12634;50.852;5.676;2023-06-04T10:54:46;26.40;82.50
24468;DHT22;12634;50.852;5.676;2023-06-04T10:57:15;26.50;82.10
24468;DHT22;12634;50.852;5.676;2023-06-04T10:59:53;26.40;73.90
24468;DHT22;12634;50.852;5.676;2023-06-04T11:02:22;26.20;84.50
24468;DHT22;12634;50.852;5.676;2023-06-04T11:04:59;26.10;73.70
24468;DHT22;12634;50.852;5.676;2023-06-04T11:07:41;25.90;80.00
24468;DHT22;12634;50.852;5.676;2023-06-04T11:10:10;26.00;71.50
24468;DHT22;12634;50.852;5.676;2023-06-04T11:12:44;26.40;80.70
24468;DHT22;12634;50.852;5.676;2023-06-04T11:15:12;26.90;75.00
24468;DHT22;12634;50.852;5.676;2023-06-04T11:17:50;27.20;84.20
24468;DHT22;12634;50.852;5.676;2023-06-04T11:20:18;27.10;74.60
24468;DHT22;12634;50.852;5.676;2023-06-04T11:22:53;26.50;69.20
24468;DHT22;12634;50.852;5.676;2023-06-04T11:25:21;26.70;82.20
24468;DHT22;12634;50.852;5.676;2023-06-04T11:27:49;27.10;75.60
24468;DHT22;12634;50.852;5.676;2023-06-04T11:30:17;27.30;76.50
24468;DHT22;12634;50.852;5.676;2023-06-04T11:32:44;27.60;79.70
24468;DHT22;12634;50.852;5.676;2023-06-04T11:35:13;27.60;71.90
24468;DHT22;12634;50.852;5.676;2023-06-04T11:37:40;27.20;74.70
24468;DHT22;12634;50.852;5.676;2023-06-04T11:40:17;27.80;76.30
24468;DHT22;12634;50.852;5.676;2023-06-04T11:42:45;28.00;71.80
24468;DHT22;12634;50.852;5.676;2023-06-04T11:45:13;28.10;80.00
24468;DHT22;12634;50.852;5.676;2023-06-04T11:47:44;27.30;70.70
24468;DHT22;12634;50.852;5.676;2023-06-04T11:50:13;27.80;74.20
24468;DHT22;12634;50.852;5.676;2023-06-04T11:52:40;28.30;75.30
24468;DHT22;12634;50.852;5.676;2023-06-04T11:55:08;27.80;74.20
24468;DHT22;12634;50.852;5.676;2023-06-04T11:57:37;28.00;67.80
24468;DHT22;12634;50.852;5.676;2023-06-04T12:00:05;28.40;75.50
24468;DHT22;12634;50.852;5.676;2023-06-04T12:02:36;28.00;68.70
24468;DHT22;12634;50.852;5.676;2023-06-04T12:05:15;27.70;73.40
24468;DHT22;12634;50.852;5.676;2023-06-04T12:07:44;28.50;79.60
24468;DHT22;12634;50.852;5.676;2023-06-04T12:10:12;28.80;81.10
24468;DHT22;12634;50.852;5.676;2023-06-04T12:12:39;28.30;69.20
24468;DHT22;12634;50.852;5.676;2023-06-04T12:15:08;28.20;73.00
24468;DHT22;12634;50.852;5.676;2023-06-04T12:17:35;28.00;77.10
24468;DHT22;12634;50.852;5.676;2023-06-04T12:20:03;28.30;74.50
24468;DHT22;12634;50.852;5.676;2023-06-04T12:22:33;28.20;69.30
24468;DHT22;12634;50.852;5.676;2023-06-04T12:25:00;28.10;69.90
24468;DHT22;12634;50.852;5.676;2023-06-04T12:27:28;28.70;72.60
24468;DHT22;12634;50.852;5.676;2023-06-04T12:29:57;28.90;71.40
24468;DHT22;12634;50.852;5.676;2023-06-04T12:32:24;28.80;74.40
24468;DHT22;12634;50.852;5.676;2023-06-04T12:34:52;28.40;66.30
24468;DHT22;12634;50.852;5.676;2023-06-04T12:37:20;28.00;70.90
24468;DHT22;12634;50.852;5.676;2023-06-04T12:39:49;27.80;66.80
24468;DHT22;12634;50.852;5.676;2023-06-04T12:42:17;27.10;66.50
24468;DHT22;12634;50.852;5.676;2023-06-04T12:44:45;27.30;67.50
24468;DHT22;12634;50.852;5.676;2023-06-04T12:47:13;27.80;70.90
24468;DHT22;12634;50.852;5.676;2023-06-04T12:49:41;28.10;77.10
24468;DHT22;12634;50.852;5.676;2023-06-04T12:52:08;28.70;69.00
24468;DHT22;12634;50.852;5.676;2023-06-04T12:54:36;28.60;71.80
24468;DHT22;12634;50.852;5.676;2023-06-04T12:57:04;28.50;66.20
24468;DHT22;12634;50.852;5.676;2023-06-04T12:59:31;28.60;73.00
24468;DHT22;12634;50.852;5.676;2023-06-04T13:01:59;28.60;66.30
24468;DHT22;12634;50.852;5.676;2023-06-04T13:04:26;29.00;77.90
24468;DHT22;12634;50.852;5.676;2023-06-04T13:06:53;29.30;69.20
24468;DHT22;12634;50.852;5.676;2023-06-04T13:09:25;29.30;70.40
24468;DHT22;12634;50.852;5.676;2023-06-04T13:11:54;28.90;67.40
24468;DHT22;12634;50.852;5.676;2023-06-04T13:14:22;29.20;68.70
24468;DHT22;12634;50.852;5.676;2023-06-04T13:16:49;29.60;71.20
24468;DHT22;12634;50.852;5.676;2023-06-04T13:19:17;29.70;70.20
24468;DHT22;12634;50.852;5.676;2023-06-04T13:21:46;29.50;62.10
24468;DHT22;12634;50.852;5.676;2023-06-04T13:24:13;29.20;57.50
24468;DHT22;12634;50.852;5.676;2023-06-04T13:26:41;29.10;67.30
24468;DHT22;12634;50.852;5.676;2023-06-04T13:29:08;29.10;68.70
24468;DHT22;12634;50.852;5.676;2023-06-04T13:31:37;29.40;66.90
24468;DHT22;12634;50.852;5.676;2023-06-04T13:34:04;29.40;66.50
24468;DHT22;12634;50.852;5.676;2023-06-04T13:36:32;29.30;69.80
24468;DHT22;12634;50.852;5.676;2023-06-04T13:38:59;29.90;64.80
24468;DHT22;12634;50.852;5.676;2023-06-04T13:41:26;30.10;65.70
24468;DHT22;12634;50.852;5.676;2023-06-04T13:43:53;30.20;62.50
24468;DHT22;12634;50.852;5.676;2023-06-04T13:46:20;30.00;68.70
24468;DHT22;12634;50.852;5.676;2023-06-04T13:48:48;30.20;65.20
24468;DHT22;12634;50.852;5.676;2023-06-04T13:51:16;30.10;61.20
24468;DHT22;12634;50.852;5.676;2023-06-04T13:53:43;30.00;63.70
24468;DHT22;12634;50.852;5.676;2023-06-04T13:56:10;29.20;64.60
24468;DHT22;12634;50.852;5.676;2023-06-04T13:58:38;28.70;54.90
24468;DHT22;12634;50.852;5.676;2023-06-04T14:01:05;28.00;58.00
24468;DHT22;12634;50.852;5.676;2023-06-04T14:03:32;27.50;57.20
24468;DHT22;12634;50.852;5.676;2023-06-04T14:06:01;27.50;64.90
24468;DHT22;12634;50.852;5.676;2023-06-04T14:08:28;28.20;64.80
24468;DHT22;12634;50.852;5.676;2023-06-04T14:10:55;28.80;61.20
24468;DHT22;12634;50.852;5.676;2023-06-04T14:13:23;29.50;59.50
24468;DHT22;12634;50.852;5.676;2023-06-04T14:15:50;28.50;62.40
24468;DHT22;12634;50.852;5.676;2023-06-04T14:18:17;29.10;65.50
24468;DHT22;12634;50.852;5.676;2023-06-04T14:20:44;29.20;58.40
24468;DHT22;12634;50.852;5.676;2023-06-04T14:23:13;29.40;67.20
24468;DHT22;12634;50.852;5.676;2023-06-04T14:25:42;29.30;57.10
24468;DHT22;12634;50.852;5.676;2023-06-04T14:28:09;29.30;59.30
24468;DHT22;12634;50.852;5.676;2023-06-04T14:30:36;28.70;63.60
24468;DHT22;12634;50.852;5.676;2023-06-04T14:33:03;29.40;57.00
24468;DHT22;12634;50.852;5.676;2023-06-04T14:35:30;28.90;56.10
24468;DHT22;12634;50.852;5.676;2023-06-04T14:37:58;28.50;59.90
24468;DHT22;12634;50.852;5.676;2023-06-04T14:40:26;28.40;59.80
24468;DHT22;12634;50.852;5.676;2023-06-04T14:42:53;28.40;60.70
24468;DHT22;12634;50.852;5.676;2023-06-04T14:45:20;28.90;60.00
24468;DHT22;12634;50.852;5.676;2023-06-04T14:47:47;28.90;61.50
24468;DHT22;12634;50.852;5.676;2023-06-04T14:50:16;28.50;60.10
24468;DHT22;12634;50.852;5.676;2023-06-04T14:52:44;28.80;61.70
24468;DHT22;12634;50.852;5.676;2023-06-04T14:55:11;29.30;57.30
24468;DHT22;12634;50.852;5.676;2023-06-04T14:57:40;29.10;61.10
24468;DHT22;12634;50.852;5.676;2023-06-04T15:00:07;29.10;56.50
24468;DHT22;12634;50.852;5.676;2023-06-04T15:02:34;28.50;59.20
24468;DHT22;12634;50.852;5.676;2023-06-04T15:05:02;29.10;57.40
24468;DHT22;12634;50.852;5.676;2023-06-04T15:07:29;28.40;52.50
24468;DHT22;12634;50.852;5.676;2023-06-04T15:09:57;27.80;57.00
24468;DHT22;12634;50.852;5.676;2023-06-04T15:12:24;27.90;56.90
24468;DHT22;12634;50.852;5.676;2023-06-04T15:14:53;27.90;53.70
24468;DHT22;12634;50.852;5.676;2023-06-04T15:17:20;27.90;57.60
24468;DHT22;12634;50.852;5.676;2023-06-04T15:19:47;28.10;57.50
24468;DHT22;12634;50.852;5.676;2023-06-04T15:22:14;28.30;55.80
24468;DHT22;12634;50.852;5.676;2023-06-04T15:24:41;28.50;56.30
24468;DHT22;12634;50.852;5.676;2023-06-04T15:27:08;28.90;56.90
24468;DHT22;12634;50.852;5.676;2023-06-04T15:29:36;28.90;56.50
24468;DHT22;12634;50.852;5.676;2023-06-04T15:32:05;29.30;53.90
24468;DHT22;12634;50.852;5.676;2023-06-04T15:34:32;28.80;61.80
24468;DHT22;12634;50.852;5.676;2023-06-04T15:36:59;29.40;57.80
24468;DHT22;12634;50.852;5.676;2023-06-04T15:39:26;29.40;54.10
24468;DHT22;12634;50.852;5.676;2023-06-04T15:41:53;28.90;57.90